CEB243 RPLL-RPVA
Flight info
| Callsign | CEB243 |
|---|---|
| Flight time | 0h 58m |
| Altitude | 35000 |
| Route | IPATA4V IPATA B462 ARREX ARREX2R |
| Aircraft | A320/M-SDE3FGHIRWY/LB1 |
Departure
| Time | 2026-04-16 15:50 |
|---|---|
| Airport | Ninoy Aquino International Airport (RPLL) |
Arrival
| Time | 2026-04-16 16:49 |
|---|---|
| Airport | Daniel Z. Romualdez Airport (RPVA) |
| Time | Latitude | Longitude | Altitude | Speed | Heading |
|---|---|---|---|---|---|
| 2026-04-16 15:04 | 14.51701 | 121.01657 | 65 ft | 0 kts | 226° |
| 2026-04-16 15:38 | 14.51704 | 121.01660 | 68 ft | 3 kts | 225° |
| 2026-04-16 15:38 | 14.51723 | 121.01679 | 61 ft | 4 kts | 221° |
| 2026-04-16 15:39 | 14.51744 | 121.01696 | 65 ft | 4 kts | 207° |
| 2026-04-16 15:39 | 14.51766 | 121.01702 | 64 ft | 4 kts | 154° |
| 2026-04-16 15:39 | 14.51772 | 121.01699 | 59 ft | 0 kts | 135° |
| 2026-04-16 15:43 | 14.51770 | 121.01701 | 65 ft | 1 kts | 135° |
| 2026-04-16 15:44 | 14.51746 | 121.01726 | 62 ft | 6 kts | 134° |
| 2026-04-16 15:44 | 14.51720 | 121.01753 | 59 ft | 6 kts | 135° |
| 2026-04-16 15:44 | 14.51679 | 121.01781 | 66 ft | 6 kts | 161° |
| 2026-04-16 15:44 | 14.51631 | 121.01776 | 62 ft | 9 kts | 201° |
| 2026-04-16 15:45 | 14.51585 | 121.01736 | 64 ft | 11 kts | 221° |
| 2026-04-16 15:45 | 14.51519 | 121.01667 | 63 ft | 13 kts | 226° |
| 2026-04-16 15:45 | 14.51473 | 121.01594 | 62 ft | 11 kts | 265° |
| 2026-04-16 15:45 | 14.51511 | 121.01533 | 66 ft | 9 kts | 314° |
| 2026-04-16 15:46 | 14.51554 | 121.01489 | 60 ft | 8 kts | 316° |
| 2026-04-16 15:46 | 14.51594 | 121.01447 | 62 ft | 9 kts | 314° |
| 2026-04-16 15:46 | 14.51655 | 121.01385 | 69 ft | 18 kts | 315° |
| 2026-04-16 15:46 | 14.51745 | 121.01292 | 64 ft | 18 kts | 315° |
| 2026-04-16 15:47 | 14.51836 | 121.01198 | 67 ft | 18 kts | 315° |
| 2026-04-16 15:47 | 14.51926 | 121.01105 | 64 ft | 18 kts | 315° |
| 2026-04-16 15:47 | 14.52016 | 121.01012 | 61 ft | 18 kts | 315° |
| 2026-04-16 15:47 | 14.52107 | 121.00918 | 66 ft | 18 kts | 315° |
| 2026-04-16 15:48 | 14.52198 | 121.00825 | 65 ft | 18 kts | 315° |
| 2026-04-16 15:48 | 14.52289 | 121.00731 | 61 ft | 18 kts | 315° |
| 2026-04-16 15:48 | 14.52379 | 121.00637 | 69 ft | 18 kts | 314° |
| 2026-04-16 15:48 | 14.52469 | 121.00546 | 66 ft | 17 kts | 315° |
| 2026-04-16 15:49 | 14.52454 | 121.00458 | 65 ft | 14 kts | 225° |
| 2026-04-16 15:49 | 14.52386 | 121.00398 | 62 ft | 12 kts | 196° |
| 2026-04-16 15:49 | 14.52352 | 121.00413 | 66 ft | 0 kts | 140° |
| 2026-04-16 15:49 | 14.52340 | 121.00425 | 66 ft | 12 kts | 137° |
| 2026-04-16 15:50 | 14.52123 | 121.00650 | 62 ft | 82 kts | 135° |
| 2026-04-16 15:50 | 14.51567 | 121.01227 | 66 ft | 141 kts | 135° |
| 2026-04-16 15:50 | 14.50837 | 121.01983 | 627 ft | 146 kts | 135° |
| 2026-04-16 15:50 | 14.50115 | 121.02716 | 1263 ft | 149 kts | 136° |
| 2026-04-16 15:51 | 14.49360 | 121.03481 | 1869 ft | 152 kts | 135° |
| 2026-04-16 15:51 | 14.48567 | 121.04299 | 2170 ft | 172 kts | 135° |
| 2026-04-16 15:51 | 14.47678 | 121.05219 | 2424 ft | 195 kts | 135° |
| 2026-04-16 15:51 | 14.46670 | 121.06265 | 2667 ft | 218 kts | 135° |
| 2026-04-16 15:52 | 14.45540 | 121.07441 | 2975 ft | 243 kts | 135° |
| 2026-04-16 15:52 | 14.44297 | 121.08733 | 3434 ft | 262 kts | 135° |
| 2026-04-16 15:52 | 14.43227 | 121.10273 | 4184 ft | 269 kts | 112° |
| 2026-04-16 15:52 | 14.42799 | 121.12161 | 5022 ft | 273 kts | 100° |
| 2026-04-16 15:53 | 14.42470 | 121.14098 | 5877 ft | 275 kts | 100° |
| 2026-04-16 15:53 | 14.42120 | 121.16044 | 6690 ft | 278 kts | 100° |
| 2026-04-16 15:53 | 14.41758 | 121.18016 | 7473 ft | 281 kts | 100° |
| 2026-04-16 15:53 | 14.41392 | 121.20002 | 8256 ft | 283 kts | 100° |
| 2026-04-16 15:54 | 14.41001 | 121.22000 | 9035 ft | 286 kts | 105° |
| 2026-04-16 15:54 | 14.40243 | 121.23910 | 9723 ft | 292 kts | 118° |
| 2026-04-16 15:54 | 14.39057 | 121.25616 | 9971 ft | 293 kts | 127° |
| 2026-04-16 15:54 | 14.37757 | 121.27290 | 10360 ft | 308 kts | 127° |
| 2026-04-16 15:55 | 14.36370 | 121.29080 | 10560 ft | 329 kts | 127° |
| 2026-04-16 15:55 | 14.34921 | 121.30954 | 11059 ft | 337 kts | 127° |
| 2026-04-16 15:55 | 14.33450 | 121.32861 | 11651 ft | 342 kts | 127° |
| 2026-04-16 15:55 | 14.31958 | 121.34797 | 12255 ft | 347 kts | 127° |
| 2026-04-16 15:56 | 14.30447 | 121.36759 | 12849 ft | 351 kts | 127° |
| 2026-04-16 15:56 | 14.28922 | 121.38740 | 13439 ft | 355 kts | 126° |
| 2026-04-16 15:56 | 14.27379 | 121.40744 | 13983 ft | 359 kts | 126° |
| 2026-04-16 15:56 | 14.25818 | 121.42768 | 14510 ft | 363 kts | 127° |
| 2026-04-16 15:57 | 14.24262 | 121.44788 | 15014 ft | 366 kts | 127° |
| 2026-04-16 15:57 | 14.22670 | 121.46855 | 15534 ft | 369 kts | 127° |
| 2026-04-16 15:57 | 14.21065 | 121.48936 | 16054 ft | 372 kts | 127° |
| 2026-04-16 15:57 | 14.19447 | 121.51033 | 16583 ft | 376 kts | 127° |
| 2026-04-16 15:58 | 14.17812 | 121.53149 | 17088 ft | 379 kts | 127° |
| 2026-04-16 15:58 | 14.16158 | 121.55286 | 17586 ft | 383 kts | 127° |
| 2026-04-16 15:58 | 14.14490 | 121.57443 | 18084 ft | 387 kts | 127° |
| 2026-04-16 15:58 | 14.12806 | 121.59624 | 18540 ft | 390 kts | 127° |
| 2026-04-16 15:59 | 14.09282 | 121.63921 | 19410 ft | 397 kts | 136° |
| 2026-04-16 15:59 | 14.07113 | 121.65697 | 19853 ft | 400 kts | 142° |
| 2026-04-16 15:59 | 14.04874 | 121.67399 | 20306 ft | 402 kts | 142° |
| 2026-04-16 16:00 | 14.02622 | 121.69115 | 20743 ft | 404 kts | 142° |
| 2026-04-16 16:00 | 14.00363 | 121.70841 | 21154 ft | 406 kts | 143° |
| 2026-04-16 16:00 | 13.98087 | 121.72579 | 21558 ft | 409 kts | 143° |
| 2026-04-16 16:00 | 13.95824 | 121.74306 | 21970 ft | 411 kts | 143° |
| 2026-04-16 16:01 | 13.93519 | 121.76065 | 22377 ft | 413 kts | 143° |
| 2026-04-16 16:01 | 13.91208 | 121.77826 | 22790 ft | 415 kts | 143° |
| 2026-04-16 16:01 | 13.88881 | 121.79595 | 23191 ft | 416 kts | 144° |
| 2026-04-16 16:01 | 13.86619 | 121.81465 | 23561 ft | 419 kts | 136° |
| 2026-04-16 16:02 | 13.84655 | 121.83684 | 23866 ft | 421 kts | 130° |
| 2026-04-16 16:02 | 13.82767 | 121.86000 | 24183 ft | 423 kts | 130° |
| 2026-04-16 16:02 | 13.81514 | 121.87538 | 24392 ft | 424 kts | 130° |
| 2026-04-16 16:02 | 13.79621 | 121.89868 | 24720 ft | 426 kts | 130° |
| 2026-04-16 16:03 | 13.77714 | 121.92216 | 25025 ft | 428 kts | 130° |
| 2026-04-16 16:03 | 13.75150 | 121.95364 | 25443 ft | 430 kts | 130° |
| 2026-04-16 16:03 | 13.73872 | 121.96927 | 25660 ft | 431 kts | 130° |
| 2026-04-16 16:03 | 13.71938 | 121.99293 | 25953 ft | 433 kts | 130° |
| 2026-04-16 16:04 | 13.69995 | 122.01670 | 26258 ft | 435 kts | 130° |
| 2026-04-16 16:04 | 13.68041 | 122.04056 | 26556 ft | 437 kts | 130° |
| 2026-04-16 16:04 | 13.66077 | 122.06455 | 26842 ft | 439 kts | 130° |
| 2026-04-16 16:04 | 13.64110 | 122.08858 | 27130 ft | 441 kts | 130° |
| 2026-04-16 16:05 | 13.62132 | 122.11278 | 27405 ft | 443 kts | 130° |
| 2026-04-16 16:05 | 13.60143 | 122.13712 | 27685 ft | 445 kts | 130° |
| 2026-04-16 16:05 | 13.58147 | 122.16154 | 27965 ft | 447 kts | 130° |
| 2026-04-16 16:05 | 13.56146 | 122.18602 | 28243 ft | 449 kts | 130° |
| 2026-04-16 16:06 | 13.54127 | 122.21069 | 28526 ft | 451 kts | 130° |
| 2026-04-16 16:06 | 13.52107 | 122.23537 | 28802 ft | 453 kts | 130° |
| 2026-04-16 16:06 | 13.50075 | 122.26015 | 29078 ft | 455 kts | 130° |
| 2026-04-16 16:06 | 13.48032 | 122.28504 | 29339 ft | 457 kts | 130° |
| 2026-04-16 16:07 | 13.46007 | 122.30973 | 29585 ft | 458 kts | 130° |
| 2026-04-16 16:07 | 13.43950 | 122.33488 | 29851 ft | 460 kts | 130° |
| 2026-04-16 16:07 | 13.41889 | 122.36005 | 30074 ft | 462 kts | 130° |
| 2026-04-16 16:07 | 13.39813 | 122.38538 | 30274 ft | 464 kts | 130° |
| 2026-04-16 16:08 | 13.37728 | 122.41078 | 30488 ft | 465 kts | 131° |
| 2026-04-16 16:08 | 13.35640 | 122.43621 | 30683 ft | 467 kts | 130° |
| 2026-04-16 16:08 | 13.33538 | 122.46180 | 30872 ft | 469 kts | 130° |
| 2026-04-16 16:08 | 13.31430 | 122.48741 | 31073 ft | 471 kts | 130° |
| 2026-04-16 16:09 | 13.29311 | 122.51313 | 31320 ft | 470 kts | 130° |
| 2026-04-16 16:09 | 13.27202 | 122.53875 | 31617 ft | 470 kts | 130° |
| 2026-04-16 16:09 | 13.25095 | 122.56440 | 31893 ft | 470 kts | 130° |
| 2026-04-16 16:09 | 13.22990 | 122.59002 | 32173 ft | 469 kts | 130° |
| 2026-04-16 16:10 | 13.20884 | 122.61563 | 32454 ft | 469 kts | 130° |
| 2026-04-16 16:10 | 13.18787 | 122.64114 | 32769 ft | 468 kts | 131° |
| 2026-04-16 16:10 | 13.16684 | 122.66671 | 33057 ft | 467 kts | 131° |
| 2026-04-16 16:10 | 13.14584 | 122.69223 | 33323 ft | 467 kts | 130° |
| 2026-04-16 16:11 | 13.12493 | 122.71765 | 33633 ft | 467 kts | 130° |
| 2026-04-16 16:11 | 13.10400 | 122.74306 | 33951 ft | 466 kts | 130° |
| 2026-04-16 16:11 | 13.08311 | 122.76839 | 34200 ft | 465 kts | 131° |
| 2026-04-16 16:11 | 13.06224 | 122.79372 | 34432 ft | 465 kts | 131° |
| 2026-04-16 16:12 | 13.04154 | 122.81884 | 34838 ft | 460 kts | 131° |
| 2026-04-16 16:12 | 13.02085 | 122.84393 | 34914 ft | 459 kts | 130° |
| 2026-04-16 16:12 | 12.97973 | 122.89375 | 34933 ft | 456 kts | 131° |
| 2026-04-16 16:13 | 12.93878 | 122.94330 | 34931 ft | 454 kts | 131° |
| 2026-04-16 16:13 | 12.89825 | 122.99234 | 34931 ft | 454 kts | 131° |
| 2026-04-16 16:14 | 12.85750 | 123.04168 | 34928 ft | 454 kts | 131° |
| 2026-04-16 16:14 | 12.81670 | 123.09110 | 34929 ft | 454 kts | 131° |
| 2026-04-16 16:15 | 12.77588 | 123.14046 | 34932 ft | 454 kts | 131° |
| 2026-04-16 16:15 | 12.73502 | 123.18982 | 34935 ft | 453 kts | 131° |
| 2026-04-16 16:16 | 12.69418 | 123.23905 | 34935 ft | 453 kts | 131° |
| 2026-04-16 16:16 | 12.65337 | 123.28822 | 34475 ft | 451 kts | 131° |
| 2026-04-16 16:17 | 12.63320 | 123.31259 | 33906 ft | 445 kts | 131° |
| 2026-04-16 16:17 | 12.61335 | 123.33659 | 33327 ft | 438 kts | 131° |
| 2026-04-16 16:17 | 12.59406 | 123.35989 | 32812 ft | 430 kts | 131° |
| 2026-04-16 16:17 | 12.57463 | 123.38332 | 32286 ft | 423 kts | 131° |
| 2026-04-16 16:18 | 12.55619 | 123.40590 | 31795 ft | 414 kts | 132° |
| 2026-04-16 16:18 | 12.53768 | 123.42854 | 31284 ft | 413 kts | 131° |
| 2026-04-16 16:18 | 12.51911 | 123.45085 | 30792 ft | 411 kts | 131° |
| 2026-04-16 16:18 | 12.50045 | 123.47309 | 30304 ft | 410 kts | 131° |
| 2026-04-16 16:19 | 12.48187 | 123.49523 | 29798 ft | 409 kts | 131° |
| 2026-04-16 16:19 | 12.46342 | 123.51727 | 29289 ft | 406 kts | 130° |
| 2026-04-16 16:19 | 12.44518 | 123.53912 | 28823 ft | 402 kts | 130° |
| 2026-04-16 16:19 | 12.42709 | 123.56084 | 28371 ft | 399 kts | 130° |
| 2026-04-16 16:20 | 12.40917 | 123.58238 | 27923 ft | 396 kts | 130° |
| 2026-04-16 16:20 | 12.39141 | 123.60373 | 27480 ft | 392 kts | 130° |
| 2026-04-16 16:20 | 12.37379 | 123.62492 | 27046 ft | 389 kts | 130° |
| 2026-04-16 16:20 | 12.35639 | 123.64594 | 26627 ft | 386 kts | 130° |
| 2026-04-16 16:21 | 12.33928 | 123.66696 | 26183 ft | 383 kts | 129° |
| 2026-04-16 16:21 | 12.32231 | 123.68801 | 25760 ft | 381 kts | 129° |
| 2026-04-16 16:21 | 12.30552 | 123.70893 | 25311 ft | 379 kts | 129° |
| 2026-04-16 16:21 | 12.28903 | 123.72948 | 24874 ft | 378 kts | 129° |
| 2026-04-16 16:22 | 12.27210 | 123.75048 | 24372 ft | 378 kts | 129° |
| 2026-04-16 16:22 | 12.25558 | 123.77091 | 23936 ft | 377 kts | 129° |
| 2026-04-16 16:22 | 12.23889 | 123.79150 | 23529 ft | 375 kts | 129° |
| 2026-04-16 16:22 | 12.22230 | 123.81195 | 23060 ft | 372 kts | 129° |
| 2026-04-16 16:23 | 12.20590 | 123.83218 | 22526 ft | 368 kts | 129° |
| 2026-04-16 16:23 | 12.18960 | 123.85229 | 21933 ft | 365 kts | 129° |
| 2026-04-16 16:23 | 12.17349 | 123.87211 | 21389 ft | 361 kts | 129° |
| 2026-04-16 16:23 | 12.15750 | 123.89175 | 20854 ft | 357 kts | 129° |
| 2026-04-16 16:24 | 12.14171 | 123.91117 | 20307 ft | 354 kts | 128° |
| 2026-04-16 16:24 | 12.12610 | 123.93038 | 19774 ft | 351 kts | 128° |
| 2026-04-16 16:24 | 12.11060 | 123.94950 | 19262 ft | 348 kts | 128° |
| 2026-04-16 16:24 | 12.09524 | 123.96849 | 18825 ft | 344 kts | 128° |
| 2026-04-16 16:25 | 12.07995 | 123.98736 | 18603 ft | 344 kts | 127° |
| 2026-04-16 16:25 | 12.06473 | 124.00612 | 18381 ft | 344 kts | 127° |
| 2026-04-16 16:25 | 12.04961 | 124.02470 | 18082 ft | 335 kts | 127° |
| 2026-04-16 16:25 | 12.03489 | 124.04278 | 17670 ft | 328 kts | 127° |
| 2026-04-16 16:26 | 12.02043 | 124.06056 | 17275 ft | 322 kts | 127° |
| 2026-04-16 16:26 | 12.00625 | 124.07801 | 16889 ft | 317 kts | 127° |
| 2026-04-16 16:26 | 11.99227 | 124.09522 | 16512 ft | 312 kts | 127° |
| 2026-04-16 16:26 | 11.97851 | 124.11215 | 16143 ft | 309 kts | 127° |
| 2026-04-16 16:27 | 11.96447 | 124.12944 | 15928 ft | 325 kts | 127° |
| 2026-04-16 16:27 | 11.94989 | 124.14740 | 15925 ft | 332 kts | 127° |
| 2026-04-16 16:27 | 11.93508 | 124.16558 | 15905 ft | 333 kts | 127° |
| 2026-04-16 16:27 | 11.92031 | 124.18368 | 15562 ft | 331 kts | 127° |
| 2026-04-16 16:28 | 11.90566 | 124.20162 | 15200 ft | 330 kts | 127° |
| 2026-04-16 16:28 | 11.89093 | 124.21971 | 14686 ft | 332 kts | 127° |
| 2026-04-16 16:28 | 11.87597 | 124.23815 | 13693 ft | 342 kts | 127° |
| 2026-04-16 16:28 | 11.86054 | 124.25663 | 12705 ft | 343 kts | 128° |
| 2026-04-16 16:29 | 11.84565 | 124.27459 | 12367 ft | 327 kts | 127° |
| 2026-04-16 16:29 | 11.83135 | 124.29216 | 12121 ft | 318 kts | 127° |
| 2026-04-16 16:29 | 11.81739 | 124.30951 | 11876 ft | 315 kts | 127° |
| 2026-04-16 16:29 | 11.80353 | 124.32676 | 11645 ft | 313 kts | 127° |
| 2026-04-16 16:30 | 11.78974 | 124.34384 | 11404 ft | 310 kts | 127° |
| 2026-04-16 16:30 | 11.77602 | 124.36070 | 11163 ft | 308 kts | 128° |
| 2026-04-16 16:30 | 11.76240 | 124.37740 | 10923 ft | 306 kts | 127° |
| 2026-04-16 16:30 | 11.74882 | 124.39411 | 10693 ft | 304 kts | 127° |
| 2026-04-16 16:31 | 11.73555 | 124.41080 | 10466 ft | 302 kts | 122° |
| 2026-04-16 16:31 | 11.72236 | 124.42744 | 10202 ft | 300 kts | 128° |
| 2026-04-16 16:31 | 11.70899 | 124.44374 | 9962 ft | 298 kts | 128° |
| 2026-04-16 16:31 | 11.69581 | 124.45969 | 9843 ft | 291 kts | 128° |
| 2026-04-16 16:32 | 11.68279 | 124.47547 | 9720 ft | 289 kts | 128° |
| 2026-04-16 16:32 | 11.66982 | 124.49118 | 9594 ft | 290 kts | 128° |
| 2026-04-16 16:32 | 11.65688 | 124.50697 | 9464 ft | 290 kts | 128° |
| 2026-04-16 16:32 | 11.64401 | 124.52271 | 9340 ft | 289 kts | 128° |
| 2026-04-16 16:33 | 11.63112 | 124.53847 | 9219 ft | 289 kts | 128° |
| 2026-04-16 16:33 | 11.61830 | 124.55417 | 9093 ft | 288 kts | 128° |
| 2026-04-16 16:33 | 11.60549 | 124.56986 | 8967 ft | 287 kts | 128° |
| 2026-04-16 16:33 | 11.59273 | 124.58553 | 8833 ft | 287 kts | 129° |
| 2026-04-16 16:34 | 11.58223 | 124.59827 | 8732 ft | 287 kts | 128° |
| 2026-04-16 16:34 | 11.57029 | 124.61283 | 8615 ft | 287 kts | 128° |
| 2026-04-16 16:34 | 11.55754 | 124.62844 | 8490 ft | 286 kts | 128° |
| 2026-04-16 16:34 | 11.54480 | 124.64401 | 8372 ft | 285 kts | 129° |
| 2026-04-16 16:35 | 11.53208 | 124.65954 | 8240 ft | 285 kts | 128° |
| 2026-04-16 16:35 | 11.51940 | 124.67502 | 8129 ft | 284 kts | 129° |
| 2026-04-16 16:35 | 11.50675 | 124.69046 | 8004 ft | 284 kts | 128° |
| 2026-04-16 16:35 | 11.49252 | 124.70433 | 7883 ft | 285 kts | 143° |
| 2026-04-16 16:36 | 11.47616 | 124.71579 | 7761 ft | 285 kts | 144° |
| 2026-04-16 16:36 | 11.45980 | 124.72715 | 7647 ft | 284 kts | 144° |
| 2026-04-16 16:36 | 11.44348 | 124.73849 | 7527 ft | 283 kts | 144° |
| 2026-04-16 16:36 | 11.42715 | 124.74982 | 7407 ft | 285 kts | 145° |
| 2026-04-16 16:37 | 11.41077 | 124.76114 | 7290 ft | 285 kts | 145° |
| 2026-04-16 16:37 | 11.39436 | 124.77246 | 7186 ft | 284 kts | 145° |
| 2026-04-16 16:37 | 11.37804 | 124.78375 | 7117 ft | 285 kts | 145° |
| 2026-04-16 16:37 | 11.36166 | 124.79512 | 6981 ft | 284 kts | 145° |
| 2026-04-16 16:38 | 11.34536 | 124.80646 | 6817 ft | 283 kts | 145° |
| 2026-04-16 16:38 | 11.32912 | 124.81775 | 6657 ft | 281 kts | 145° |
| 2026-04-16 16:38 | 11.31330 | 124.82872 | 6528 ft | 269 kts | 145° |
| 2026-04-16 16:38 | 11.29840 | 124.83903 | 6417 ft | 257 kts | 145° |
| 2026-04-16 16:39 | 11.28273 | 124.84688 | 6221 ft | 249 kts | 163° |
| 2026-04-16 16:39 | 11.26578 | 124.85120 | 6018 ft | 247 kts | 167° |
| 2026-04-16 16:39 | 11.24917 | 124.85492 | 5995 ft | 248 kts | 167° |
| 2026-04-16 16:39 | 11.23230 | 124.85865 | 5982 ft | 248 kts | 167° |
| 2026-04-16 16:40 | 11.21549 | 124.86234 | 5684 ft | 247 kts | 167° |
| 2026-04-16 16:40 | 11.19878 | 124.86601 | 5343 ft | 246 kts | 167° |
| 2026-04-16 16:40 | 11.18206 | 124.86970 | 5012 ft | 245 kts | 167° |
| 2026-04-16 16:40 | 11.16542 | 124.87337 | 4699 ft | 245 kts | 167° |
| 2026-04-16 16:41 | 11.15420 | 124.87585 | 4457 ft | 244 kts | 167° |
| 2026-04-16 16:41 | 11.13225 | 124.88064 | 4030 ft | 243 kts | 167° |
| 2026-04-16 16:41 | 11.11582 | 124.88415 | 3765 ft | 239 kts | 167° |
| 2026-04-16 16:41 | 11.09987 | 124.88752 | 3642 ft | 229 kts | 167° |
| 2026-04-16 16:42 | 11.08456 | 124.89072 | 3500 ft | 221 kts | 167° |
| 2026-04-16 16:42 | 11.06958 | 124.89383 | 3272 ft | 219 kts | 167° |
| 2026-04-16 16:42 | 11.05486 | 124.89744 | 2980 ft | 217 kts | 156° |
| 2026-04-16 16:42 | 11.04263 | 124.90648 | 2553 ft | 219 kts | 125° |
| 2026-04-16 16:43 | 11.03661 | 124.92004 | 2493 ft | 206 kts | 97° |
| 2026-04-16 16:43 | 11.03565 | 124.93438 | 2495 ft | 202 kts | 91° |
| 2026-04-16 16:43 | 11.03497 | 124.94857 | 2496 ft | 200 kts | 91° |
| 2026-04-16 16:43 | 11.03427 | 124.96267 | 2496 ft | 199 kts | 91° |
| 2026-04-16 16:44 | 11.03359 | 124.97674 | 2499 ft | 199 kts | 91° |
| 2026-04-16 16:44 | 11.03291 | 124.99077 | 2501 ft | 199 kts | 91° |
| 2026-04-16 16:44 | 11.03424 | 125.00463 | 2495 ft | 197 kts | 63° |
| 2026-04-16 16:44 | 11.04357 | 125.01436 | 2455 ft | 196 kts | 22° |
| 2026-04-16 16:45 | 11.05685 | 125.01660 | 2339 ft | 195 kts | 4° |
| 2026-04-16 16:45 | 11.07042 | 125.01743 | 2228 ft | 195 kts | 4° |
| 2026-04-16 16:45 | 11.08375 | 125.01826 | 2092 ft | 194 kts | 3° |
| 2026-04-16 16:45 | 11.09729 | 125.01911 | 1980 ft | 195 kts | 4° |
| 2026-04-16 16:46 | 11.11076 | 125.01998 | 1859 ft | 192 kts | 4° |
| 2026-04-16 16:46 | 11.12346 | 125.02080 | 1784 ft | 173 kts | 5° |
| 2026-04-16 16:46 | 11.13490 | 125.02154 | 1703 ft | 157 kts | 5° |
| 2026-04-16 16:46 | 11.14571 | 125.02225 | 1469 ft | 153 kts | 6° |
| 2026-04-16 16:47 | 11.15609 | 125.02294 | 1273 ft | 145 kts | 5° |
| 2026-04-16 16:47 | 11.16606 | 125.02360 | 1062 ft | 142 kts | 5° |
| 2026-04-16 16:47 | 11.17590 | 125.02427 | 878 ft | 142 kts | 5° |
| 2026-04-16 16:47 | 11.18577 | 125.02493 | 687 ft | 143 kts | 4° |
| 2026-04-16 16:48 | 11.19571 | 125.02563 | 447 ft | 143 kts | 4° |
| 2026-04-16 16:48 | 11.20563 | 125.02635 | 243 ft | 143 kts | 3° |
| 2026-04-16 16:48 | 11.21559 | 125.02696 | 81 ft | 143 kts | 4° |
| 2026-04-16 16:48 | 11.22508 | 125.02753 | 18 ft | 123 kts | 6° |
| 2026-04-16 16:49 | 11.23086 | 125.02795 | 12 ft | 33 kts | 5° |
| 2026-04-16 16:49 | 11.23232 | 125.02805 | 10 ft | 11 kts | 349° |
| 2026-04-16 16:49 | 11.23305 | 125.02797 | 12 ft | 9 kts | 11° |
| 2026-04-16 16:49 | 11.23307 | 125.02812 | 10 ft | 2 kts | 147° |
| 2026-04-16 16:50 | 11.23284 | 125.02809 | 10 ft | 6 kts | 184° |
| 2026-04-16 16:50 | 11.23250 | 125.02807 | 10 ft | 4 kts | 184° |
| 2026-04-16 16:50 | 11.23202 | 125.02803 | 11 ft | 11 kts | 184° |
| 2026-04-16 16:50 | 11.23101 | 125.02797 | 12 ft | 18 kts | 183° |
| 2026-04-16 16:51 | 11.22926 | 125.02786 | 11 ft | 20 kts | 185° |
| 2026-04-16 16:51 | 11.22849 | 125.02780 | 11 ft | 15 kts | 184° |
| 2026-04-16 16:51 | 11.22766 | 125.02745 | 12 ft | 13 kts | 240° |
| 2026-04-16 16:51 | 11.22735 | 125.02698 | 12 ft | 5 kts | 213° |
| 2026-04-16 16:52 | 11.22708 | 125.02690 | 13 ft | 3 kts | 182° |
| 2026-04-16 16:52 | 11.22676 | 125.02688 | 13 ft | 5 kts | 182° |
| 2026-04-16 16:52 | 11.22642 | 125.02687 | 15 ft | 7 kts | 183° |
| 2026-04-16 16:52 | 11.22625 | 125.02676 | 13 ft | 1 kts | 271° |
| 2026-04-16 16:53 | 11.22635 | 125.02661 | 14 ft | 4 kts | 302° |
| 2026-04-16 16:53 | 11.22641 | 125.02652 | 14 ft | 2 kts | 306° |
| 2026-04-16 16:53 | 11.22641 | 125.02651 | 14 ft | 0 kts | 306° |